Time;durP1;ratioP1;P1;durP2;ratioP2;P2;SDS_P1;SDS_P2;PMS_P1;PMS_P2;Temp;Humidity;BMP_temperature;BMP_pressure;BME280_temperature;BME280_humidity;BME280_pressure;Samples;Min_cycle;Max_cycle;Signal;HPM_P1;HPM_P2
2022/05/12 00:01:34;;;;;;;14.98;8.82;;;;;;;21.75;47.39;101468.69;5064745;28;20050;-51
2022/05/12 00:04:01;;;;;;;16.88;9.15;;;;;;;21.75;47.33;101468.69;5069378;28;20076;-53
2022/05/12 00:06:28;;;;;;;14.43;8.60;;;;;;;21.71;47.30;101470.91;5068829;28;20416;-52
2022/05/12 00:08:54;;;;;;;16.58;8.75;;;;;;;21.70;47.29;101471.88;5063348;28;20048;-51
2022/05/12 00:11:21;;;;;;;13.90;8.38;;;;;;;21.69;47.06;101481.00;5065827;28;20048;-54
2022/05/12 00:13:47;;;;;;;14.55;9.02;;;;;;;21.68;46.99;101482.84;5064950;28;20098;-53
2022/05/12 00:16:14;;;;;;;12.55;7.50;;;;;;;21.67;47.23;101486.56;5067245;28;20062;-55
2022/05/12 00:18:40;;;;;;;14.48;7.63;;;;;;;21.67;47.53;101488.41;5066084;28;20049;-53
2022/05/12 00:21:07;;;;;;;13.75;7.85;;;;;;;21.65;47.24;101493.97;5064209;28;20048;-53
2022/05/12 00:23:33;;;;;;;12.15;7.55;;;;;;;21.64;47.01;101497.66;5069502;28;20052;-54
2022/05/12 00:26:00;;;;;;;12.38;7.68;;;;;;;21.64;47.12;101502.22;5066811;28;20090;-53
2022/05/12 00:28:27;;;;;;;13.10;7.15;;;;;;;21.63;47.03;101509.47;5066824;28;20044;-52
2022/05/12 00:30:57;;;;;;;12.68;7.03;;;;;;;21.61;47.40;101508.78;5065525;28;20057;-53
2022/05/12 00:33:27;;;;;;;12.10;7.13;;;;;;;21.59;47.47;101518.91;5066564;28;20048;-51
2022/05/12 00:35:56;;;;;;;13.10;7.80;;;;;;;21.58;47.29;101510.94;5067367;28;20765;-52
2022/05/12 00:38:22;;;;;;;12.40;6.80;;;;;;;21.57;47.27;101525.44;5068864;28;20040;-54
2022/05/12 00:40:49;;;;;;;14.02;7.70;;;;;;;21.55;47.40;101522.94;5066095;28;20051;-53
2022/05/12 00:43:36;;;;;;;11.15;6.80;;;;;;;21.53;47.20;101526.78;5063836;28;20053;-54
2022/05/12 00:46:05;;;;;;;13.65;6.72;;;;;;;21.51;47.63;101521.56;5065973;28;20424;-53
2022/05/12 00:48:32;;;;;;;13.27;6.50;;;;;;;21.50;47.53;101519.00;5067824;28;20139;-53
2022/05/12 00:50:59;;;;;;;10.52;5.95;;;;;;;21.49;47.25;101523.56;5064952;28;20051;-52
2022/05/12 00:53:26;;;;;;;11.10;6.45;;;;;;;21.49;47.55;101518.16;5067248;28;20049;-53
2022/05/12 00:55:53;;;;;;;11.43;6.70;;;;;;;21.49;47.66;101522.72;5066959;28;20057;-53
2022/05/12 00:58:21;;;;;;;10.52;6.10;;;;;;;21.47;47.54;101528.28;5065737;28;20051;-52
2022/05/12 01:00:48;;;;;;;13.07;6.88;;;;;;;21.46;47.24;101534.66;5064751;28;20136;-52
2022/05/12 01:03:19;;;;;;;13.20;6.75;;;;;;;21.46;47.38;101531.97;5067198;28;20152;-52
2022/05/12 01:05:47;;;;;;;12.38;6.32;;;;;;;21.45;47.55;101532.97;5065021;28;20056;-52
2022/05/12 01:08:16;;;;;;;10.52;6.13;;;;;;;21.43;47.68;101537.69;5067953;28;20040;-51
2022/05/12 01:10:47;;;;;;;10.13;5.95;;;;;;;21.42;47.49;101534.13;5066062;28;20420;-52
2022/05/12 01:13:24;;;;;;;10.55;5.53;;;;;;;21.41;47.35;101535.13;5062873;28;20088;-51
2022/05/12 01:15:58;;;;;;;11.02;6.10;;;;;;;21.41;47.77;101537.00;5067887;28;20070;-52
2022/05/12 01:18:27;;;;;;;9.60;5.90;;;;;;;21.40;47.27;101532.59;5067879;28;20077;-55
2022/05/12 01:20:54;;;;;;;8.73;5.20;;;;;;;21.39;47.41;101539.00;5064644;28;20160;-54
2022/05/12 01:23:22;;;;;;;8.90;5.28;;;;;;;21.38;47.36;101543.53;5066770;28;20135;-52
2022/05/12 01:25:49;;;;;;;9.30;5.50;;;;;;;21.38;47.48;101545.38;5068246;28;20044;-53
2022/05/12 01:28:16;;;;;;;10.65;5.80;;;;;;;21.36;47.26;101553.66;5048822;28;20132;-54
2022/05/12 01:30:43;;;;;;;8.73;5.18;;;;;;;21.37;47.31;101558.03;5044150;28;20045;-54
2022/05/12 01:33:09;;;;;;;8.48;5.60;;;;;;;21.35;47.82;101551.13;5050900;28;20068;-52
2022/05/12 01:35:36;;;;;;;8.75;5.47;;;;;;;21.35;47.63;101551.97;5049952;28;20049;-55
2022/05/12 01:38:03;;;;;;;10.55;5.50;;;;;;;21.34;47.41;101554.81;5049021;28;20051;-52
2022/05/12 01:40:29;;;;;;;9.32;5.43;;;;;;;21.33;47.70;101555.81;5051475;28;20051;-54
2022/05/12 01:42:56;;;;;;;8.07;5.55;;;;;;;21.31;47.29;101563.19;5046925;28;20067;-51
2022/05/12 01:45:22;;;;;;;8.25;4.93;;;;;;;21.32;47.56;101559.50;5048859;28;20060;-53
2022/05/12 01:47:50;;;;;;;7.18;4.55;;;;;;;21.30;47.42;101556.94;5045038;28;20465;-51
2022/05/12 01:50:18;;;;;;;9.68;5.30;;;;;;;21.29;47.28;101557.94;5046820;28;20725;-53
2022/05/12 01:52:45;;;;;;;7.68;4.43;;;;;;;21.28;47.31;101564.34;5050383;28;20099;-48
2022/05/12 01:55:15;;;;;;;7.60;4.45;;;;;;;21.28;47.49;101560.81;5053348;28;20067;-52
2022/05/12 01:57:45;;;;;;;12.35;5.30;;;;;;;21.27;47.36;101565.34;5052137;28;20045;-53
2022/05/12 02:00:15;;;;;;;7.85;4.57;;;;;;;21.25;47.21;101570.06;5055120;28;20043;-55
2022/05/12 02:02:42;;;;;;;9.02;4.50;;;;;;;21.25;47.48;101567.34;5054297;28;20040;-48
2022/05/12 02:05:10;;;;;;;9.40;4.60;;;;;;;21.23;47.35;101577.47;5047620;28;20052;-52
2022/05/12 02:07:40;;;;;;;9.68;4.40;;;;;;;21.21;47.74;101574.06;5028213;28;20054;-53
2022/05/12 02:10:08;;;;;;;7.60;4.40;;;;;;;21.23;47.17;101581.97;5037897;28;20447;-51
2022/05/12 02:12:35;;;;;;;7.55;4.32;;;;;;;21.20;47.77;101589.41;5041434;28;20053;-53
2022/05/12 02:15:01;;;;;;;9.05;4.68;;;;;;;21.21;47.31;101592.94;5051979;28;20053;-52
2022/05/12 02:17:28;;;;;;;6.93;4.22;;;;;;;21.18;47.82;101591.38;5047051;28;20124;-51
2022/05/12 02:19:55;;;;;;;7.50;4.35;;;;;;;21.18;47.46;101588.69;5051930;28;20049;-52
2022/05/12 02:22:21;;;;;;;8.18;4.30;;;;;;;21.18;47.45;101599.47;5056775;28;20040;-54
2022/05/12 02:24:48;;;;;;;8.48;4.00;;;;;;;21.17;47.28;101608.56;5050838;28;20111;-50
2022/05/12 02:27:14;;;;;;;7.53;4.10;;;;;;;21.17;47.45;101611.28;5050520;28;20459;-55
2022/05/12 02:29:41;;;;;;;7.10;3.92;;;;;;;21.16;47.45;101612.28;5040649;28;20096;-51
2022/05/12 02:32:07;;;;;;;9.15;4.22;;;;;;;21.16;47.63;101614.13;5047481;28;20385;-49
2022/05/12 02:34:34;;;;;;;7.82;4.00;;;;;;;21.15;47.32;101612.44;5050587;28;20483;-52
2022/05/12 02:37:03;;;;;;;9.05;4.10;;;;;;;21.13;47.25;101611.75;5047641;28;20049;-54
2022/05/12 02:39:35;;;;;;;7.10;3.55;;;;;;;21.11;47.82;101617.31;5047468;28;20085;-51
2022/05/12 02:42:03;;;;;;;6.90;3.97;;;;;;;21.11;47.43;101621.84;5048475;28;20056;-51
2022/05/12 02:44:30;;;;;;;6.88;3.30;;;;;;;21.09;47.35;101626.53;5041758;28;20312;-49
2022/05/12 02:46:57;;;;;;;6.25;3.67;;;;;;;21.08;47.29;101633.78;5049410;28;20105;-50
2022/05/12 02:49:24;;;;;;;6.60;3.63;;;;;;;21.07;47.62;101632.09;5048892;28;20324;-50
2022/05/12 02:51:50;;;;;;;5.72;3.55;;;;;;;21.07;47.80;101640.19;5050369;28;20128;-49
2022/05/12 02:54:18;;;;;;;6.28;3.58;;;;;;;21.05;47.78;101639.47;5046567;28;20048;-48
2022/05/12 02:56:46;;;;;;;7.25;3.25;;;;;;;21.04;47.76;101637.78;5049484;28;20132;-52
2022/05/12 02:59:13;;;;;;;7.10;3.80;;;;;;;21.02;47.90;101631.69;5047675;28;20039;-51
2022/05/12 03:01:40;;;;;;;5.07;3.22;;;;;;;21.02;48.00;101634.38;5048666;28;20407;-52
2022/05/12 03:04:06;;;;;;;4.85;3.42;;;;;;;21.02;48.12;101652.41;5047761;28;20059;-51
2022/05/12 03:06:33;;;;;;;6.28;3.67;;;;;;;21.00;48.17;101647.19;5047657;28;20427;-53
2022/05/12 03:08:59;;;;;;;6.82;3.78;;;;;;;20.99;48.22;101644.66;5038574;28;20251;-52
2022/05/12 03:11:28;;;;;;;4.82;2.95;;;;;;;20.99;47.85;101650.03;5048143;28;20124;-52
2022/05/12 03:13:54;;;;;;;5.60;3.15;;;;;;;20.97;48.07;101652.03;5050501;28;20082;-49
2022/05/12 03:16:22;;;;;;;5.82;3.78;;;;;;;20.97;47.69;101650.16;5045787;28;20077;-49
2022/05/12 03:18:51;;;;;;;6.38;3.22;;;;;;;20.96;48.25;101656.56;5047077;28;20524;-51
2022/05/12 03:21:18;;;;;;;6.38;3.60;;;;;;;20.96;48.18;101656.56;5036709;28;20045;-51
2022/05/12 03:23:45;;;;;;;7.82;3.28;;;;;;;20.94;48.38;101658.56;5038901;28;20141;-51
2022/05/12 03:26:12;;;;;;;4.13;2.50;;;;;;;20.93;47.91;101659.56;5046503;28;20055;-52
2022/05/12 03:28:40;;;;;;;5.10;3.05;;;;;;;20.92;48.03;101665.97;5050824;28;20055;-50
2022/05/12 03:31:12;;;;;;;5.95;3.08;;;;;;;20.94;47.67;101677.41;5067111;28;20136;-52
2022/05/12 03:33:39;;;;;;;4.65;2.80;;;;;;;20.92;48.06;101672.19;5064154;28;20071;-51
2022/05/12 03:36:07;;;;;;;4.63;2.85;;;;;;;20.90;48.28;101674.22;5067558;28;20487;-52
2022/05/12 03:38:34;;;;;;;5.97;3.28;;;;;;;20.91;48.15;101677.75;5065221;28;20039;-51
2022/05/12 03:41:00;;;;;;;4.25;2.70;;;;;;;20.90;48.19;101686.81;5055655;28;20044;-53
2022/05/12 03:46:12;;;;;;;4.75;3.05;;;;;;;20.89;48.01;101693.19;5067723;28;20454;-50
2022/05/12 03:48:39;;;;;;;5.10;3.00;;;;;;;20.87;48.00;101698.75;5067039;28;20066;-52
2022/05/12 03:51:07;;;;;;;4.88;2.85;;;;;;;20.87;48.22;101700.59;5065833;28;20144;-51
2022/05/12 03:53:34;;;;;;;4.00;2.42;;;;;;;20.86;48.23;101699.72;5060849;28;20136;-51
2022/05/12 03:56:02;;;;;;;6.93;2.83;;;;;;;20.86;48.03;101696.19;5057798;28;20139;-50
2022/05/12 03:58:29;;;;;;;3.58;2.63;;;;;;;20.85;47.97;101692.66;5062840;28;20476;-52
2022/05/12 04:00:55;;;;;;;7.38;3.55;;;;;;;20.84;48.80;101693.66;5053728;28;20184;-51
2022/05/12 04:03:22;;;;;;;12.68;4.32;;;;;;;20.85;48.68;101702.59;5062599;28;20059;-49
2022/05/12 04:05:49;;;;;;;22.83;6.57;;;;;;;20.84;48.43;101707.13;5068736;28;20163;-50
2022/05/12 04:08:15;;;;;;;16.60;5.82;;;;;;;20.85;49.03;101707.97;5064187;28;20068;-51
2022/05/12 04:10:42;;;;;;;21.58;5.60;;;;;;;20.83;48.79;101710.00;5060514;28;20483;-49
2022/05/12 04:13:09;;;;;;;17.52;5.00;;;;;;;20.83;48.70;101707.31;5063467;28;20487;-50
2022/05/12 04:15:35;;;;;;;15.35;5.18;;;;;;;20.83;48.37;101712.69;5052915;28;20055;-50
2022/05/12 04:18:05;;;;;;;9.60;4.55;;;;;;;20.82;48.73;101709.13;5054183;28;20051;-51
2022/05/12 04:20:33;;;;;;;14.75;5.05;;;;;;;20.83;48.79;101723.47;5062994;28;20043;-52
2022/05/12 04:23:00;;;;;;;16.50;5.15;;;;;;;20.82;49.13;101725.28;5061165;28;20148;-52
2022/05/12 04:25:27;;;;;;;16.58;4.65;;;;;;;20.81;48.67;101731.69;5064905;28;20114;-49
2022/05/12 04:27:53;;;;;;;12.35;4.55;;;;;;;20.82;48.54;101735.22;5064203;28;20139;-51
2022/05/12 04:30:26;;;;;;;18.80;5.40;;;;;;;20.83;48.62;101742.34;5058339;28;20164;-52
2022/05/12 04:32:54;;;;;;;15.02;4.90;;;;;;;20.82;48.67;101735.22;5065595;28;20048;-48
2022/05/12 04:35:23;;;;;;;11.32;4.20;;;;;;;20.81;48.90;101738.91;5069500;28;20371;-52
2022/05/12 04:37:54;;;;;;;12.65;4.80;;;;;;;20.82;49.09;101741.44;5066694;28;20067;-53
2022/05/12 04:40:30;;;;;;;12.15;5.10;;;;;;;20.83;49.01;101745.03;5066768;28;20040;-49
2022/05/12 04:42:59;;;;;;;11.52;4.43;;;;;;;20.84;48.71;101749.41;5059926;28;20510;-48
2022/05/12 04:45:29;;;;;;;13.73;6.15;;;;;;;20.86;48.47;101758.16;5067172;28;20075;-52
2022/05/12 04:47:56;;;;;;;12.70;4.78;;;;;;;20.89;48.73;101757.88;5065208;28;21262;-49
2022/05/12 04:50:29;;;;;;;15.77;5.40;;;;;;;20.91;48.66;101766.69;5067805;28;20127;-49
2022/05/12 04:52:55;;;;;;;11.07;5.18;;;;;;;20.94;48.06;101764.53;5066056;28;20586;-49
2022/05/12 04:55:22;;;;;;;13.30;5.22;;;;;;;20.95;48.31;101768.91;5069062;28;20047;-48
2022/05/12 04:57:50;;;;;;;10.52;5.38;;;;;;;20.99;48.17;101774.88;5058039;28;20044;-51
2022/05/12 05:00:22;;;;;;;14.35;6.10;;;;;;;21.03;48.10;101778.09;5061494;28;20814;-48
2022/05/12 05:02:48;;;;;;;9.75;4.55;;;;;;;21.05;48.00;101782.31;5066938;28;20032;-49
2022/05/12 05:05:15;;;;;;;12.48;4.47;;;;;;;21.09;48.07;101782.88;5069642;28;20048;-53
2022/05/12 05:07:42;;;;;;;10.05;5.10;;;;;;;21.10;48.09;101780.03;5056406;28;20413;-50
2022/05/12 05:10:12;;;;;;;11.57;5.03;;;;;;;21.13;47.71;101777.03;5069428;28;20149;-51
2022/05/12 05:12:40;;;;;;;9.25;4.85;;;;;;;21.14;47.92;101783.25;5067395;28;20072;-47
2022/05/12 05:15:08;;;;;;;10.57;4.68;;;;;;;21.13;47.91;101789.66;5041140;28;20622;-48
2022/05/12 05:17:35;;;;;;;12.20;5.22;;;;;;;21.12;47.93;101799.59;5037926;28;20076;-52
2022/05/12 05:20:07;;;;;;;8.40;5.03;;;;;;;21.10;47.82;101798.88;5048285;28;20122;-49
2022/05/12 05:22:34;;;;;;;8.07;4.47;;;;;;;21.10;47.55;101798.03;5063709;28;20751;-52
2022/05/12 05:25:01;;;;;;;7.93;4.68;;;;;;;21.08;47.71;101789.28;5061819;28;20040;-53
2022/05/12 05:27:27;;;;;;;8.40;4.45;;;;;;;21.06;47.86;101802.88;5059205;28;20059;-49
2022/05/12 05:29:54;;;;;;;9.73;4.70;;;;;;;21.04;47.58;101804.91;5050091;28;20155;-52
2022/05/12 05:32:21;;;;;;;10.40;4.90;;;;;;;21.04;48.14;101804.91;5044322;28;20045;-52
2022/05/12 05:34:48;;;;;;;7.97;4.65;;;;;;;21.03;47.69;101805.91;5049607;28;20056;-52
2022/05/12 05:37:14;;;;;;;11.25;4.88;;;;;;;21.01;47.94;101810.59;5046486;28;20045;-49
2022/05/12 05:39:41;;;;;;;9.70;4.80;;;;;;;21.01;47.64;101813.28;5057436;28;20124;-48
2022/05/12 05:42:12;;;;;;;9.35;4.97;;;;;;;21.01;48.10;101818.66;5051319;28;20516;-51
2022/05/12 05:44:39;;;;;;;8.43;5.18;;;;;;;21.00;48.13;101825.06;5044051;28;20056;-50
2022/05/12 05:47:06;;;;;;;9.38;5.00;;;;;;;21.00;47.96;101829.59;5052895;28;20075;-51
2022/05/12 05:49:33;;;;;;;11.32;5.40;;;;;;;20.99;47.97;101825.22;5052997;28;20191;-48
2022/05/12 05:54:45;;;;;;;9.63;5.05;;;;;;;20.98;47.79;101840.53;5053841;28;20145;-49
2022/05/12 05:57:12;;;;;;;10.18;4.75;;;;;;;20.98;48.41;101854.00;5037249;28;20082;-51
2022/05/12 05:59:39;;;;;;;8.48;4.40;;;;;;;20.97;48.30;101860.41;5058179;28;20127;-49
2022/05/12 06:02:06;;;;;;;8.88;4.90;;;;;;;20.97;48.03;101863.09;5059332;28;20049;-49
2022/05/12 06:04:33;;;;;;;8.18;5.20;;;;;;;20.97;47.82;101864.94;5053335;28;20044;-50
2022/05/12 06:06:59;;;;;;;7.28;4.18;;;;;;;20.95;47.93;101874.03;5057110;28;20099;-49
2022/05/12 06:09:28;;;;;;;9.43;4.68;;;;;;;20.95;48.38;101871.34;5057943;28;20064;-52
2022/05/12 06:11:54;;;;;;;7.63;4.60;;;;;;;20.94;47.99;101884.94;5042880;28;20051;-52
2022/05/12 06:14:21;;;;;;;9.00;4.85;;;;;;;20.94;48.03;101879.53;5052789;28;20127;-49
2022/05/12 06:16:48;;;;;;;9.65;4.97;;;;;;;20.94;47.62;101887.63;5055093;28;20083;-48
2022/05/12 06:19:14;;;;;;;8.00;4.68;;;;;;;20.94;48.09;101885.81;5051503;28;20059;-49
2022/05/12 06:21:41;;;;;;;8.98;4.28;;;;;;;20.93;47.88;101889.47;5050935;28;20079;-52
2022/05/12 06:24:08;;;;;;;7.28;4.72;;;;;;;20.94;47.95;101901.09;5044022;28;20052;-51
2022/05/12 06:26:35;;;;;;;8.45;4.40;;;;;;;20.95;47.99;101898.28;5048173;28;20061;-50
2022/05/12 06:29:01;;;;;;;9.68;4.30;;;;;;;20.95;47.72;101898.28;5067787;28;20051;-50
2022/05/12 06:31:32;;;;;;;7.93;4.35;;;;;;;20.95;48.01;101909.06;5070836;28;20078;-50
2022/05/12 06:34:00;;;;;;;7.85;4.40;;;;;;;20.96;48.04;101901.81;5070696;28;20052;-52
2022/05/12 06:36:29;;;;;;;7.65;4.10;;;;;;;20.98;47.73;101910.59;5067047;28;20331;-52
2022/05/12 06:38:55;;;;;;;7.57;4.00;;;;;;;20.98;47.80;101918.69;5070559;28;20392;-54
2022/05/12 06:41:24;;;;;;;6.05;4.15;;;;;;;20.98;47.92;101924.06;5069811;28;20127;-49
2022/05/12 06:43:51;;;;;;;6.65;3.72;;;;;;;20.99;47.92;101923.09;5072331;28;20420;-52
2022/05/12 06:46:18;;;;;;;11.65;4.40;;;;;;;20.99;47.96;101930.34;5070656;28;20044;-48
2022/05/12 06:48:47;;;;;;;9.27;4.30;;;;;;;20.98;47.83;101925.94;5066271;28;20419;-50
2022/05/12 06:51:14;;;;;;;7.75;3.70;;;;;;;20.98;47.79;101932.16;5070989;28;20123;-50
2022/05/12 06:53:42;;;;;;;7.93;4.63;;;;;;;21.00;47.82;101937.44;5055086;28;20451;-51
2022/05/12 06:56:15;;;;;;;7.45;3.55;;;;;;;21.01;48.15;101947.19;5070299;28;20117;-50
2022/05/12 06:58:42;;;;;;;6.57;3.95;;;;;;;21.00;47.89;101943.66;5067182;28;20052;-52
2022/05/12 07:01:10;;;;;;;6.70;3.60;;;;;;;21.01;47.87;101939.97;5050608;28;20123;-50
2022/05/12 07:03:38;;;;;;;7.65;3.67;;;;;;;21.00;47.89;101943.66;5070303;28;20057;-49
2022/05/12 07:06:08;;;;;;;6.25;3.70;;;;;;;21.02;47.93;101941.66;5071625;28;20040;-49
2022/05/12 07:08:41;;;;;;;6.68;3.85;;;;;;;21.02;47.89;101944.34;5070323;28;20049;-53
2022/05/12 07:11:12;;;;;;;6.50;3.83;;;;;;;21.03;47.58;101947.91;5067402;28;20036;-51
2022/05/12 07:13:39;;;;;;;8.23;3.97;;;;;;;21.04;47.44;101941.53;5064341;28;20154;-51
2022/05/12 07:16:07;;;;;;;6.72;3.67;;;;;;;21.04;47.87;101947.75;5063522;28;20048;-54
2022/05/12 07:18:35;;;;;;;7.13;3.50;;;;;;;21.05;47.69;101956.69;5069162;28;20076;-52
2022/05/12 07:26:53;;;;;;;6.38;3.55;;;;;;;21.07;47.98;101963.66;5067880;28;20060;-48
2022/05/12 07:29:26;;;;;;;6.13;3.40;;;;;;;21.07;47.70;101963.66;5069875;28;20044;-50
2022/05/12 07:31:52;;;;;;;5.30;3.08;;;;;;;21.08;47.65;101965.34;5073518;28;20523;-54
2022/05/12 07:34:20;;;;;;;7.70;3.35;;;;;;;21.08;47.62;101973.44;5068034;28;20047;-53
2022/05/12 07:36:50;;;;;;;6.47;2.88;;;;;;;21.08;47.92;101973.44;5073074;28;20076;-53
2022/05/12 07:39:23;;;;;;;5.65;3.05;;;;;;;21.09;47.50;101968.88;5071908;28;20075;-51
2022/05/12 07:41:50;;;;;;;6.10;2.92;;;;;;;21.11;47.38;101983.09;5070010;28;20044;-49
2022/05/12 07:44:19;;;;;;;5.45;3.05;;;;;;;21.11;47.79;101980.38;5068808;28;20080;-51
2022/05/12 07:46:47;;;;;;;5.68;3.10;;;;;;;21.11;47.41;101980.38;5069405;28;20057;-50
2022/05/12 07:49:14;;;;;;;5.53;2.90;;;;;;;21.12;47.61;101979.38;5067642;28;20159;-49
2022/05/12 07:51:46;;;;;;;6.97;2.97;;;;;;;21.13;47.70;101978.38;5069353;28;20052;-53
2022/05/12 07:54:13;;;;;;;5.03;2.80;;;;;;;21.13;47.09;101981.91;5069581;28;20455;-51
2022/05/12 07:56:39;;;;;;;7.53;3.20;;;;;;;21.14;47.53;101982.75;5069483;28;20131;-52
2022/05/12 07:59:06;;;;;;;4.53;3.10;;;;;;;21.16;47.30;101984.34;5070355;28;20198;-49
2022/05/12 08:01:33;;;;;;;6.22;2.90;;;;;;;21.15;47.24;101987.19;5068185;28;20291;-48
2022/05/12 08:03:59;;;;;;;5.97;2.90;;;;;;;21.16;47.50;101984.34;5067321;28;20079;-48
2022/05/12 08:06:26;;;;;;;7.10;3.00;;;;;;;21.18;47.30;101986.88;5070177;28;20059;-51
2022/05/12 08:08:53;;;;;;;6.10;2.97;;;;;;;21.18;47.39;101987.72;5071380;28;20080;-53
2022/05/12 08:11:20;;;;;;;5.40;3.15;;;;;;;21.19;47.47;101986.75;5067786;28;20142;-51
2022/05/12 08:13:47;;;;;;;5.68;2.45;;;;;;;21.20;47.25;101991.13;5073636;28;20050;-52
2022/05/12 08:16:16;;;;;;;6.03;2.90;;;;;;;21.22;47.06;101990.97;5067784;28;20045;-51
2022/05/12 08:18:45;;;;;;;8.63;2.95;;;;;;;21.23;47.29;101990.00;5068189;28;20040;-47
2022/05/12 08:21:13;;;;;;;5.25;2.67;;;;;;;21.23;47.11;101989.13;5067552;28;20099;-49
2022/05/12 08:23:40;;;;;;;4.70;2.50;;;;;;;21.25;47.41;101989.84;5047271;28;20127;-50
2022/05/12 08:26:08;;;;;;;4.93;2.45;;;;;;;21.25;47.00;101996.06;5068762;28;20040;-49
2022/05/12 08:28:35;;;;;;;5.00;2.83;;;;;;;21.27;47.14;101995.94;5068412;28;20109;-50
2022/05/12 08:31:02;;;;;;;9.05;2.90;;;;;;;21.27;47.01;101994.09;5066899;28;20036;-51
2022/05/12 08:33:35;;;;;;;5.20;2.72;;;;;;;21.29;46.79;102002.03;5069507;28;20452;-49
2022/05/12 08:36:02;;;;;;;5.60;2.53;;;;;;;21.29;47.32;101996.63;5067577;28;20076;-49
2022/05/12 08:38:29;;;;;;;4.25;2.20;;;;;;;21.32;46.99;101999.06;5070358;28;20171;-53
2022/05/12 08:41:23;;;;;;;4.28;2.13;;;;;;;21.32;47.31;102001.75;5069725;28;20080;-52
2022/05/12 08:44:00;;;;;;;5.35;2.60;;;;;;;21.33;46.78;102004.31;5067565;28;20131;-48
2022/05/12 08:46:43;;;;;;;4.90;2.22;;;;;;;21.34;46.73;102006.00;5067112;28;20726;-50
2022/05/12 08:49:31;;;;;;;5.43;2.15;;;;;;;21.36;46.89;102013.97;5066831;28;20040;-52
2022/05/12 08:52:10;;;;;;;6.60;2.40;;;;;;;21.37;47.24;102010.28;5049576;28;20049;-51
2022/05/12 08:54:42;;;;;;;5.55;2.40;;;;;;;21.39;46.94;102019.06;5069080;28;20091;-52
2022/05/12 08:57:30;;;;;;;6.38;2.53;;;;;;;21.39;47.07;102017.22;5072539;28;20416;-53
2022/05/12 09:00:00;;;;;;;4.40;2.55;;;;;;;21.41;46.77;102028.69;5066900;28;20056;-52
2022/05/12 09:02:54;;;;;;;6.22;2.10;;;;;;;21.43;46.90;102023.19;5072912;28;20139;-52
2022/05/12 09:05:37;;;;;;;4.65;2.05;;;;;;;21.46;46.80;102022.00;5071625;28;20051;-52
2022/05/12 09:08:40;;;;;;;5.60;2.10;;;;;;;21.47;46.96;102016.50;5069877;28;20067;-54
2022/05/12 09:11:38;;;;;;;5.47;2.22;;;;;;;21.51;47.27;102025.09;5064125;28;20040;-54
2022/05/12 09:14:11;;;;;;;5.57;1.90;;;;;;;21.53;46.93;102025.81;5071083;28;20049;-54
2022/05/12 09:16:38;;;;;;;5.60;1.92;;;;;;;21.56;47.21;102022.84;5071729;28;20048;-53
2022/05/12 09:19:04;;;;;;;5.30;2.65;;;;;;;21.58;47.00;102021.69;5068870;28;20090;-53
2022/05/12 09:21:35;;;;;;;10.15;2.50;;;;;;;21.62;46.75;102023.06;5070997;28;20036;-53
2022/05/12 09:24:04;;;;;;;4.43;2.10;;;;;;;21.66;47.00;102020.94;5076362;28;20048;-51
2022/05/12 09:26:38;;;;;;;4.30;2.17;;;;;;;21.69;47.16;102020.63;5065913;28;20071;-52
2022/05/12 09:29:14;;;;;;;22.48;4.15;;;;;;;21.73;47.73;102019.34;5072287;28;20282;-52
2022/05/12 09:31:45;;;;;;;23.98;4.63;;;;;;;21.79;49.15;102020.59;5069230;28;20123;-52
2022/05/12 09:34:21;;;;;;;24.48;4.68;;;;;;;21.82;50.21;102020.28;5068538;28;20466;-52
2022/05/12 09:36:47;;;;;;;16.25;3.70;;;;;;;21.86;50.91;102021.69;5071002;28;20049;-52
2022/05/12 09:39:44;;;;;;;26.13;4.80;;;;;;;21.88;51.83;102023.25;5071715;28;20460;-54
2022/05/12 09:42:29;;;;;;;29.60;5.55;;;;;;;21.93;52.39;102017.41;5071478;28;20051;-52
2022/05/12 09:45:06;;;;;;;31.08;6.15;;;;;;;21.97;52.61;102015.25;5043002;28;20041;-55
2022/05/12 09:47:34;;;;;;;32.80;6.95;;;;;;;21.99;52.80;102007.81;5065649;28;20062;-53
2022/05/12 09:50:20;;;;;;;41.70;6.95;;;;;;;22.00;53.30;102010.41;5063874;28;20098;-56
2022/05/12 09:53:03;;;;;;;41.95;7.82;;;;;;;22.02;53.20;102011.06;5068189;28;20052;-51
2022/05/12 09:56:19;;;;;;;40.78;7.30;;;;;;;22.05;52.94;102016.19;5070924;28;20076;-54
2022/05/12 09:58:56;;;;;;;27.25;6.68;;;;;;;22.10;53.01;102019.25;5056731;28;20054;-53
2022/05/12 10:01:24;;;;;;;30.67;7.00;;;;;;;22.14;53.25;102020.69;5064079;28;20050;-51
2022/05/12 10:09:30;;;;;;;29.50;8.85;;;;;;;22.21;54.34;102020.09;5060792;28;20059;-52
2022/05/12 10:12:11;;;;;;;31.30;8.75;;;;;;;22.24;54.83;102022.50;5065874;28;20052;-54
2022/05/12 10:14:46;;;;;;;26.60;9.10;;;;;;;22.26;54.49;102021.31;5062920;28;20503;-53
2022/05/12 10:17:21;;;;;;;25.10;7.97;;;;;;;22.27;54.38;102022.19;5065894;28;20052;-55
2022/05/12 10:19:48;;;;;;;29.52;9.93;;;;;;;22.28;54.52;102026.59;5058657;28;20041;-54
2022/05/12 10:22:18;;;;;;;27.70;8.93;;;;;;;22.28;54.20;102026.59;5065185;28;20044;-54
2022/05/12 10:25:00;;;;;;;23.38;8.70;;;;;;;22.27;54.22;102031.16;5063527;28;20131;-53
2022/05/12 10:27:37;;;;;;;24.02;8.10;;;;;;;22.28;54.25;102029.28;5066211;28;20143;-56
2022/05/12 10:30:33;;;;;;;23.65;8.98;;;;;;;22.27;54.09;102016.78;5057597;28;20052;-55
2022/05/12 10:33:28;;;;;;;21.42;8.07;;;;;;;22.27;53.55;102024.88;5067448;28;20068;-54
2022/05/12 10:36:09;;;;;;;25.05;9.40;;;;;;;22.28;53.55;102026.59;5061294;28;20513;-50
2022/05/12 10:38:57;;;;;;;30.65;8.45;;;;;;;22.27;53.52;102028.44;5056970;28;20529;-50
2022/05/12 10:42:04;;;;;;;19.23;7.13;;;;;;;22.27;53.32;102024.88;5060167;28;20056;-51
2022/05/12 10:45:22;;;;;;;22.58;8.30;;;;;;;22.25;53.00;102022.34;5053013;28;20040;-52
2022/05/12 10:48:06;;;;;;;26.90;8.00;;;;;;;22.26;53.22;102009.69;4974522;28;20042;-53
2022/05/12 10:51:05;;;;;;;27.02;8.95;;;;;;;22.27;52.62;102009.53;4974148;28;20058;-53
2022/05/12 10:53:42;;;;;;;21.33;7.45;;;;;;;22.28;52.79;102013.09;5046434;28;20127;-53
2022/05/12 10:56:25;;;;;;;17.98;7.00;;;;;;;22.29;52.73;102017.47;5059956;28;20053;-52
2022/05/12 10:59:12;;;;;;;27.92;8.43;;;;;;;22.29;52.42;102012.94;5060145;28;20625;-52
2022/05/12 11:02:01;;;;;;;19.83;7.10;;;;;;;22.32;52.41;102022.59;5070392;28;20119;-54
2022/05/12 11:04:45;;;;;;;17.23;7.38;;;;;;;22.34;52.01;102007.06;5068820;28;20283;-54
2022/05/12 11:07:45;;;;;;;20.60;7.72;;;;;;;22.33;52.24;102014.31;5065639;28;20538;-54
2022/05/12 11:10:29;;;;;;;21.00;6.90;;;;;;;22.35;52.33;102006.94;5063344;28;20036;-53
2022/05/12 11:13:01;;;;;;;16.70;6.70;;;;;;;22.37;51.99;102013.00;5060715;28;20052;-53
2022/05/12 11:15:34;;;;;;;21.67;8.05;;;;;;;22.39;51.54;102010.13;5057763;28;20541;-56
2022/05/12 11:18:11;;;;;;;15.98;5.97;;;;;;;22.40;51.42;102014.56;5069545;28;20059;-55
2022/05/12 11:20:48;;;;;;;17.90;7.93;;;;;;;22.40;51.13;102011.88;5060371;28;20052;-56
2022/05/12 11:23:38;;;;;;;18.00;7.68;;;;;;;22.40;51.14;102015.41;5066469;28;20044;-54
2022/05/12 11:26:30;;;;;;;16.92;6.70;;;;;;;22.42;51.25;102009.84;5063873;28;20076;-56
2022/05/12 11:32:33;;;;;;;18.58;8.55;;;;;;;22.42;50.44;102005.28;4986881;28;20133;-56
2022/05/12 11:35:23;;;;;;;17.17;8.20;;;;;;;22.42;50.55;102007.97;5059114;28;20067;-55
2022/05/12 11:37:59;;;;;;;15.23;7.35;;;;;;;22.44;50.89;102005.16;5068571;28;20136;-56
2022/05/12 11:40:41;;;;;;;16.52;7.30;;;;;;;22.44;50.89;102002.44;5065229;28;20045;-54
2022/05/12 11:46:19;;;;;;;14.60;7.72;;;;;;;22.44;50.99;102010.56;5070621;28;20059;-53
2022/05/12 11:49:01;;;;;;;16.33;7.55;;;;;;;22.43;50.59;102003.41;5070919;28;20205;-55
2022/05/12 11:51:52;;;;;;;15.25;7.70;;;;;;;22.42;50.68;102002.59;5059645;28;20044;-55
2022/05/12 11:54:32;;;;;;;14.43;6.97;;;;;;;22.42;50.50;102010.69;5063763;28;20376;-55
2022/05/12 11:57:01;;;;;;;15.65;7.03;;;;;;;22.44;50.30;102007.00;5060384;28;20084;-56
2022/05/12 11:59:30;;;;;;;15.05;7.00;;;;;;;22.44;50.28;102012.41;5062770;28;20052;-54
2022/05/12 12:02:05;;;;;;;12.27;7.22;;;;;;;22.44;49.88;102010.56;5062836;28;20074;-54
2022/05/12 12:04:52;;;;;;;18.58;8.38;;;;;;;22.43;49.78;102011.53;5051061;28;20049;-54